Time;durP1;ratioP1;P1;durP2;ratioP2;P2;SDS_P1;SDS_P2;PMS_P1;PMS_P2;Temp;Humidity;BMP_temperature;BMP_pressure;BME280_temperature;BME280_humidity;BME280_pressure;Samples;Min_cycle;Max_cycle;Signal;HPM_P1;HPM_P2
2022/09/21 00:01:45;;;;;;;8.07;2.40;;;;;;;;;;5090014;28;20233;-16
2022/09/21 00:04:12;;;;;;;3.92;2.10;;;;;;;;;;5075324;28;20221;-15
2022/09/21 00:06:40;;;;;;;3.97;2.15;;;;;;;;;;5070337;28;20217;-15
2022/09/21 00:09:08;;;;;;;5.07;2.08;;;;;;;;;;5070793;28;20248;-16
2022/09/21 00:11:36;;;;;;;5.70;2.13;;;;;;;;;;5074492;28;21046;-16
2022/09/21 00:14:05;;;;;;;6.35;2.10;;;;;;;;;;5091097;28;20225;-16
2022/09/21 00:16:35;;;;;;;4.43;2.35;;;;;;;;;;5090624;28;20235;-16
2022/09/21 00:19:02;;;;;;;6.45;1.90;;;;;;;;;;5090720;28;20699;-15
2022/09/21 00:21:30;;;;;;;3.53;1.60;;;;;;;;;;5090567;28;20248;-16
2022/09/21 00:23:58;;;;;;;4.50;2.00;;;;;;;;;;5091859;28;20224;-16
2022/09/21 00:26:26;;;;;;;2.78;1.60;;;;;;;;;;5094646;28;20691;-15
2022/09/21 00:28:54;;;;;;;2.90;1.77;;;;;;;;;;5093472;28;20718;-16
2022/09/21 00:31:21;;;;;;;4.88;1.70;;;;;;;;;;5093135;28;20229;-16
2022/09/21 00:33:50;;;;;;;5.72;2.03;;;;;;;;;;5093534;28;20233;-16
2022/09/21 00:36:18;;;;;;;2.88;1.65;;;;;;;;;;5090190;28;20229;-15
2022/09/21 00:38:48;;;;;;;4.18;1.95;;;;;;;;;;5080379;28;20994;-15
2022/09/21 00:41:16;;;;;;;3.78;1.60;;;;;;;;;;5093619;28;20228;-16
2022/09/21 00:43:45;;;;;;;4.75;2.00;;;;;;;;;;5094212;28;20233;-16
2022/09/21 00:46:13;;;;;;;4.95;1.92;;;;;;;;;;5093077;28;20221;-15
2022/09/21 00:48:41;;;;;;;5.93;1.80;;;;;;;;;;5094169;28;20971;-15
2022/09/21 00:51:09;;;;;;;2.55;1.73;;;;;;;;;;5093740;28;20975;-16
2022/09/21 00:53:37;;;;;;;4.03;1.80;;;;;;;;;;5093140;28;20240;-16
2022/09/21 00:56:05;;;;;;;1.88;1.45;;;;;;;;;;5092015;28;20225;-16
2022/09/21 00:58:33;;;;;;;3.85;1.55;;;;;;;;;;5093475;28;20962;-16
2022/09/21 01:01:00;;;;;;;2.33;1.40;;;;;;;;;;5093304;28;20259;-16
2022/09/21 01:03:29;;;;;;;2.53;1.70;;;;;;;;;;5093881;28;20228;-15
2022/09/21 01:05:56;;;;;;;6.10;1.80;;;;;;;;;;5093821;28;20231;-16
2022/09/21 01:08:25;;;;;;;3.15;1.67;;;;;;;;;;5093460;28;20244;-15
2022/09/21 01:10:58;;;;;;;4.97;1.88;;;;;;;;;;5093514;28;20221;-16
2022/09/21 01:13:27;;;;;;;4.07;1.85;;;;;;;;;;5093876;28;20213;-15
2022/09/21 01:15:55;;;;;;;3.60;1.70;;;;;;;;;;5093179;28;20229;-16
2022/09/21 01:18:26;;;;;;;2.33;1.65;;;;;;;;;;5092236;28;20227;-16
2022/09/21 01:21:08;;;;;;;2.88;1.83;;;;;;;;;;5092249;28;20774;-16
2022/09/21 01:23:44;;;;;;;2.42;1.60;;;;;;;;;;5084830;28;20226;-16
2022/09/21 01:26:14;;;;;;;2.88;1.48;;;;;;;;;;5080542;28;20692;-16
2022/09/21 01:29:00;;;;;;;1.60;1.30;;;;;;;;;;5084849;28;20705;-16
2022/09/21 01:31:28;;;;;;;2.47;1.50;;;;;;;;;;5091015;28;20232;-16
2022/09/21 01:33:57;;;;;;;1.88;1.42;;;;;;;;;;5092268;28;20267;-16
2022/09/21 01:36:25;;;;;;;2.15;1.48;;;;;;;;;;5092432;28;20315;-15
2022/09/21 01:38:54;;;;;;;2.40;1.73;;;;;;;;;;5092938;28;20725;-15
2022/09/21 01:41:22;;;;;;;2.13;1.23;;;;;;;;;;5092858;28;20237;-16
2022/09/21 01:43:50;;;;;;;2.90;1.92;;;;;;;;;;5084428;28;20703;-16
2022/09/21 01:46:20;;;;;;;2.92;1.50;;;;;;;;;;5089230;28;20303;-16
2022/09/21 01:48:49;;;;;;;3.70;1.42;;;;;;;;;;5093076;28;21043;-17
2022/09/21 01:51:16;;;;;;;2.90;1.30;;;;;;;;;;5092429;28;20726;-16
2022/09/21 01:53:44;;;;;;;3.53;1.52;;;;;;;;;;5092788;28;20224;-16
2022/09/21 01:56:13;;;;;;;3.55;1.73;;;;;;;;;;5092161;28;20232;-16
2022/09/21 01:58:41;;;;;;;1.98;1.33;;;;;;;;;;5092846;28;20228;-17
2022/09/21 02:01:09;;;;;;;2.72;1.42;;;;;;;;;;5092491;28;20251;-16
2022/09/21 02:03:38;;;;;;;2.92;1.27;;;;;;;;;;5092884;28;20291;-16
2022/09/21 02:06:06;;;;;;;3.38;1.55;;;;;;;;;;5092379;28;20221;-16
2022/09/21 02:08:33;;;;;;;1.67;1.30;;;;;;;;;;5072967;28;20241;-17
2022/09/21 02:11:01;;;;;;;4.28;1.33;;;;;;;;;;5071614;28;20279;-16
2022/09/21 02:13:29;;;;;;;2.88;1.30;;;;;;;;;;5072144;28;20727;-16
2022/09/21 02:16:02;;;;;;;3.78;1.08;;;;;;;;;;5079399;28;20237;-15
2022/09/21 02:18:32;;;;;;;2.58;1.38;;;;;;;;;;5091955;28;20224;-16
2022/09/21 02:21:01;;;;;;;3.00;1.42;;;;;;;;;;5104773;22;20253;-13
2022/09/21 02:23:30;;;;;;;1.88;1.10;;;;;;;;;;5083657;28;20245;-15
2022/09/21 02:25:59;;;;;;;2.13;1.40;;;;;;;;;;5079241;28;20287;-14
2022/09/21 02:28:28;;;;;;;1.40;1.23;;;;;;;;;;5091539;28;20228;-13
2022/09/21 02:30:58;;;;;;;2.78;1.45;;;;;;;;;;5092373;28;20679;-13
2022/09/21 02:33:26;;;;;;;1.77;1.30;;;;;;;;;;5092435;28;20260;-13
2022/09/21 02:35:55;;;;;;;2.08;1.30;;;;;;;;;;5091098;28;20217;-13
2022/09/21 02:38:25;;;;;;;1.40;1.02;;;;;;;;;;5091733;28;20871;-13
2022/09/21 02:40:53;;;;;;;2.55;1.13;;;;;;;;;;5090689;28;20246;-15
2022/09/21 02:43:21;;;;;;;1.58;1.17;;;;;;;;;;5091474;28;20228;-15
2022/09/21 02:45:50;;;;;;;1.85;1.10;;;;;;;;;;5084977;28;20304;-15
2022/09/21 02:48:18;;;;;;;3.28;1.27;;;;;;;;;;5069952;28;20692;-15
2022/09/21 02:50:46;;;;;;;2.03;1.50;;;;;;;;;;5076060;28;20229;-13
2022/09/21 02:53:13;;;;;;;1.58;1.35;;;;;;;;;;5091289;28;20769;-15
2022/09/21 02:55:44;;;;;;;1.88;1.25;;;;;;;;;;5091529;28;20715;-13
2022/09/21 02:58:12;;;;;;;1.38;1.13;;;;;;;;;;5091233;28;20216;-13
2022/09/21 03:00:39;;;;;;;1.60;1.17;;;;;;;;;;5090724;28;20225;-13
2022/09/21 03:03:15;;;;;;;2.90;1.10;;;;;;;;;;5089254;28;20710;-13
2022/09/21 03:05:43;;;;;;;1.40;1.10;;;;;;;;;;5070828;28;20760;-15
2022/09/21 03:08:11;;;;;;;3.20;1.35;;;;;;;;;;5070635;28;21068;-15
2022/09/21 03:10:39;;;;;;;2.40;1.45;;;;;;;;;;5071069;28;20809;-15
2022/09/21 03:13:08;;;;;;;2.85;1.30;;;;;;;;;;5077963;28;20283;-15
2022/09/21 03:15:36;;;;;;;1.60;1.20;;;;;;;;;;5090833;28;20233;-15
2022/09/21 03:18:04;;;;;;;1.90;1.23;;;;;;;;;;5090623;28;20278;-15
2022/09/21 03:20:32;;;;;;;2.65;1.10;;;;;;;;;;5090565;28;20278;-15
2022/09/21 03:22:59;;;;;;;1.80;1.20;;;;;;;;;;5060043;28;20226;-15
2022/09/21 03:25:26;;;;;;;1.65;1.20;;;;;;;;;;5067471;28;20226;-15
2022/09/21 03:27:54;;;;;;;1.83;1.17;;;;;;;;;;5070575;28;20217;-14
2022/09/21 03:30:22;;;;;;;1.40;1.05;;;;;;;;;;5072714;28;20307;-15
2022/09/21 03:32:50;;;;;;;2.60;1.15;;;;;;;;;;5090777;28;20984;-15
2022/09/21 03:35:17;;;;;;;1.55;1.00;;;;;;;;;;5080380;28;20325;-15
2022/09/21 03:37:45;;;;;;;2.65;1.30;;;;;;;;;;5070423;28;20229;-14
2022/09/21 03:40:12;;;;;;;1.40;0.95;;;;;;;;;;5070516;28;20846;-15
2022/09/21 03:42:40;;;;;;;2.78;1.60;;;;;;;;;;5069896;28;20233;-15
2022/09/21 03:45:08;;;;;;;2.83;1.05;;;;;;;;;;5070277;28;20218;-15
2022/09/21 03:47:37;;;;;;;2.60;1.38;;;;;;;;;;5050042;28;20233;-15
2022/09/21 03:50:04;;;;;;;1.48;1.10;;;;;;;;;;5049748;28;20217;-15
2022/09/21 03:52:38;;;;;;;1.92;1.20;;;;;;;;;;5050259;28;20217;-15
2022/09/21 03:55:05;;;;;;;2.20;1.15;;;;;;;;;;5050032;28;20234;-15
2022/09/21 03:57:33;;;;;;;1.42;1.20;;;;;;;;;;5061283;28;20229;-15
2022/09/21 04:00:02;;;;;;;1.50;1.00;;;;;;;;;;5073886;28;20209;-15
2022/09/21 04:02:29;;;;;;;1.40;1.23;;;;;;;;;;5053734;28;20225;-15
2022/09/21 04:04:58;;;;;;;1.92;1.13;;;;;;;;;;5053516;28;20225;-15
2022/09/21 04:07:26;;;;;;;2.05;1.13;;;;;;;;;;5056587;28;20230;-15
2022/09/21 04:09:53;;;;;;;2.75;1.00;;;;;;;;;;5073275;28;20298;-15
2022/09/21 04:12:21;;;;;;;1.38;0.98;;;;;;;;;;5073712;28;20209;-15
2022/09/21 04:14:49;;;;;;;3.00;1.20;;;;;;;;;;5072717;28;20234;-15
2022/09/21 04:17:16;;;;;;;1.88;1.08;;;;;;;;;;5091919;28;20282;-15
2022/09/21 04:19:44;;;;;;;1.95;1.10;;;;;;;;;;5079395;28;21296;-15
2022/09/21 04:22:13;;;;;;;1.38;0.93;;;;;;;;;;5061770;28;20286;-15
2022/09/21 04:24:40;;;;;;;1.60;1.10;;;;;;;;;;5053263;28;20219;-15
2022/09/21 04:27:08;;;;;;;1.60;1.10;;;;;;;;;;5053534;28;20281;-15
2022/09/21 04:29:35;;;;;;;1.92;1.23;;;;;;;;;;5057049;28;20229;-15
2022/09/21 04:32:03;;;;;;;3.25;1.00;;;;;;;;;;5090131;28;20213;-15
2022/09/21 04:34:31;;;;;;;1.42;1.10;;;;;;;;;;5093544;28;20271;-15
2022/09/21 04:36:58;;;;;;;1.92;0.93;;;;;;;;;;5093428;28;20965;-15
2022/09/21 04:39:27;;;;;;;1.77;1.10;;;;;;;;;;5092908;28;20565;-15
2022/09/21 04:41:54;;;;;;;3.00;1.13;;;;;;;;;;5073180;28;20319;-15
2022/09/21 04:44:22;;;;;;;2.05;1.10;;;;;;;;;;5073026;28;20699;-15
2022/09/21 04:46:49;;;;;;;2.90;1.00;;;;;;;;;;5087641;28;20643;-15
2022/09/21 04:49:16;;;;;;;2.03;1.00;;;;;;;;;;5093319;28;20291;-15
2022/09/21 04:51:44;;;;;;;1.58;1.20;;;;;;;;;;5087278;28;20280;-15
2022/09/21 04:54:11;;;;;;;2.25;1.10;;;;;;;;;;5072596;28;20230;-14
2022/09/21 04:56:40;;;;;;;2.63;1.17;;;;;;;;;;5073100;28;20225;-15
2022/09/21 04:59:07;;;;;;;2.20;1.10;;;;;;;;;;5072787;28;20217;-14
2022/09/21 05:01:34;;;;;;;2.17;1.15;;;;;;;;;;5075987;28;20225;-15
2022/09/21 05:04:02;;;;;;;4.22;1.30;;;;;;;;;;5071238;28;21058;-15
2022/09/21 05:06:29;;;;;;;1.42;1.02;;;;;;;;;;5070218;28;20743;-15
2022/09/21 05:11:43;;;;;;;2.60;1.08;;;;;;;;;;5052700;28;20308;-15
2022/09/21 05:14:10;;;;;;;2.10;1.00;;;;;;;;;;5052284;28;20238;-15
2022/09/21 05:16:38;;;;;;;7.32;1.33;;;;;;;;;;5078883;28;20213;-15
2022/09/21 05:19:05;;;;;;;2.95;1.00;;;;;;;;;;5077663;28;20272;-15
2022/09/21 05:21:35;;;;;;;1.90;0.88;;;;;;;;;;5068323;28;20253;-15
2022/09/21 05:24:02;;;;;;;2.13;1.20;;;;;;;;;;5070724;28;20218;-14
2022/09/21 05:26:30;;;;;;;1.52;1.00;;;;;;;;;;5070623;28;20688;-15
2022/09/21 05:28:59;;;;;;;1.10;1.00;;;;;;;;;;5071031;28;20667;-15
2022/09/21 05:31:29;;;;;;;2.53;1.10;;;;;;;;;;5072417;28;20275;-15
2022/09/21 05:33:58;;;;;;;4.70;1.20;;;;;;;;;;5069353;28;20233;-15
2022/09/21 05:36:29;;;;;;;1.80;0.95;;;;;;;;;;5070600;28;20824;-14
2022/09/21 05:38:56;;;;;;;0.90;0.80;;;;;;;;;;5069301;28;20221;-15
2022/09/21 05:41:24;;;;;;;2.10;0.90;;;;;;;;;;5068402;28;21171;-15
2022/09/21 05:43:51;;;;;;;1.70;0.93;;;;;;;;;;5065299;28;21173;-15
2022/09/21 05:46:20;;;;;;;1.58;1.10;;;;;;;;;;5063751;28;20283;-15
2022/09/21 05:48:51;;;;;;;2.63;1.17;;;;;;;;;;5066108;28;20249;-14
2022/09/21 05:51:21;;;;;;;1.95;1.00;;;;;;;;;;5071912;28;20229;-15
2022/09/21 05:53:50;;;;;;;1.50;1.00;;;;;;;;;;5058874;28;20218;-15
2022/09/21 05:56:21;;;;;;;3.05;1.00;;;;;;;;;;5051492;28;20230;-15
2022/09/21 05:58:51;;;;;;;2.85;1.02;;;;;;;;;;5065208;28;20230;-15
2022/09/21 06:01:23;;;;;;;2.28;1.20;;;;;;;;;;5072947;28;20225;-15
2022/09/21 06:03:51;;;;;;;3.15;1.05;;;;;;;;;;5071822;28;20304;-15
2022/09/21 06:06:18;;;;;;;1.40;1.00;;;;;;;;;;5071533;28;20236;-15
2022/09/21 06:08:46;;;;;;;4.15;0.90;;;;;;;;;;5070718;28;20233;-14
2022/09/21 06:11:13;;;;;;;5.30;1.00;;;;;;;;;;5071586;28;21011;-15
2022/09/21 06:13:40;;;;;;;1.30;0.80;;;;;;;;;;5071633;28;20291;-15
2022/09/21 06:16:08;;;;;;;4.30;1.20;;;;;;;;;;5080074;28;20306;-15
2022/09/21 06:18:38;;;;;;;3.70;1.30;;;;;;;;;;5061839;28;20225;-15
2022/09/21 06:21:06;;;;;;;3.10;1.08;;;;;;;;;;5051991;28;20292;-15
2022/09/21 06:23:33;;;;;;;5.28;1.15;;;;;;;;;;5050973;28;20230;-14
2022/09/21 06:26:00;;;;;;;5.78;1.02;;;;;;;;;;5050633;28;20311;-15
2022/09/21 06:28:28;;;;;;;4.50;1.40;;;;;;;;;;5051000;28;20708;-14
2022/09/21 06:30:56;;;;;;;7.85;1.42;;;;;;;;;;5064170;28;20229;-15
2022/09/21 06:33:23;;;;;;;6.22;1.58;;;;;;;;;;5091668;28;20208;-15
2022/09/21 06:35:53;;;;;;;4.40;1.23;;;;;;;;;;5091156;28;20288;-15
2022/09/21 06:38:20;;;;;;;2.83;1.15;;;;;;;;;;5091558;28;20217;-15
2022/09/21 06:40:48;;;;;;;3.95;1.45;;;;;;;;;;5086262;28;20233;-14
2022/09/21 06:43:15;;;;;;;6.20;1.33;;;;;;;;;;5069496;28;20463;-15
2022/09/21 06:45:42;;;;;;;1.55;1.02;;;;;;;;;;5062230;28;20225;-15
2022/09/21 06:48:10;;;;;;;3.95;1.00;;;;;;;;;;5091821;28;20231;-15
2022/09/21 06:50:37;;;;;;;2.85;0.98;;;;;;;;;;5092088;28;20275;-15
2022/09/21 06:53:06;;;;;;;2.88;1.30;;;;;;;;;;5082897;28;21019;-14
2022/09/21 06:55:33;;;;;;;2.80;0.93;;;;;;;;;;5071714;28;20308;-15
2022/09/21 06:58:01;;;;;;;4.07;1.20;;;;;;;;;;5071597;28;20746;-15
2022/09/21 07:00:29;;;;;;;3.33;1.40;;;;;;;;;;5074883;28;20239;-15
2022/09/21 07:02:56;;;;;;;2.42;1.15;;;;;;;;;;5075950;28;20245;-15
2022/09/21 07:05:23;;;;;;;2.42;1.20;;;;;;;;;;5071010;28;20888;-15
2022/09/21 07:07:51;;;;;;;8.57;1.20;;;;;;;;;;5070907;28;20289;-15
2022/09/21 07:10:21;;;;;;;5.70;1.30;;;;;;;;;;5071763;28;20209;-15
2022/09/21 07:12:51;;;;;;;3.15;1.40;;;;;;;;;;5071445;28;20234;-15
2022/09/21 07:15:19;;;;;;;5.30;1.58;;;;;;;;;;5073015;28;20241;-15
2022/09/21 07:17:46;;;;;;;6.10;1.40;;;;;;;;;;5091701;28;20365;-15
2022/09/21 07:20:18;;;;;;;6.00;1.35;;;;;;;;;;5091473;28;20209;-14
2022/09/21 07:22:45;;;;;;;8.13;1.58;;;;;;;;;;5062849;28;20249;-14
2022/09/21 07:25:13;;;;;;;12.20;2.17;;;;;;;;;;5050951;28;20303;-14
2022/09/21 07:27:41;;;;;;;7.88;1.52;;;;;;;;;;5070617;28;20266;-14
2022/09/21 07:30:09;;;;;;;4.70;1.65;;;;;;;;;;5071204;28;20229;-14
2022/09/21 07:32:37;;;;;;;9.60;1.73;;;;;;;;;;5089817;28;20209;-14
2022/09/21 07:35:05;;;;;;;12.25;2.03;;;;;;;;;;5090827;28;21064;-14
2022/09/21 07:37:32;;;;;;;12.75;1.83;;;;;;;;;;5089087;28;20233;-14
2022/09/21 07:40:02;;;;;;;16.67;2.28;;;;;;;;;;5090561;28;20290;-14
2022/09/21 07:42:29;;;;;;;13.38;2.30;;;;;;;;;;5065706;28;20233;-14
2022/09/21 07:44:58;;;;;;;11.15;1.88;;;;;;;;;;5050462;28;20280;-14
2022/09/21 07:47:31;;;;;;;8.07;1.58;;;;;;;;;;5052815;28;20240;-14
2022/09/21 07:49:58;;;;;;;11.75;2.25;;;;;;;;;;5070911;28;20792;-14
2022/09/21 07:52:26;;;;;;;7.35;1.45;;;;;;;;;;5070590;28;20225;-14
2022/09/21 07:54:53;;;;;;;10.07;2.05;;;;;;;;;;5070230;28;20218;-14
2022/09/21 08:00:08;;;;;;;15.75;2.20;;;;;;;;;;5064790;28;20225;-14
2022/09/21 08:02:35;;;;;;;17.92;2.33;;;;;;;;;;5089100;28;20263;-14
2022/09/21 08:05:03;;;;;;;8.70;1.75;;;;;;;;;;5089422;28;20220;-14
2022/09/21 08:07:30;;;;;;;10.60;1.52;;;;;;;;;;5089579;28;20213;-14
2022/09/21 08:09:58;;;;;;;9.05;1.80;;;;;;;;;;5081976;28;20226;-14
2022/09/21 08:12:26;;;;;;;6.85;1.65;;;;;;;;;;5070023;28;20229;-14
2022/09/21 08:14:53;;;;;;;9.50;1.80;;;;;;;;;;5070352;28;20755;-14
2022/09/21 08:17:23;;;;;;;10.63;1.85;;;;;;;;;;5084073;28;20680;-14
2022/09/21 08:19:50;;;;;;;4.70;1.27;;;;;;;;;;5061779;28;20311;-15
2022/09/21 08:22:19;;;;;;;8.15;1.83;;;;;;;;;;5065335;28;20726;-15
2022/09/21 08:24:47;;;;;;;4.40;1.65;;;;;;;;;;5069006;28;20295;-15
2022/09/21 08:27:16;;;;;;;3.83;1.25;;;;;;;;;;5068933;28;20268;-15
2022/09/21 08:29:43;;;;;;;6.43;1.45;;;;;;;;;;5070486;28;20222;-14
2022/09/21 08:32:10;;;;;;;2.17;1.27;;;;;;;;;;5069845;28;20301;-14
2022/09/21 08:34:59;;;;;;;11.68;1.77;;;;;;;;;;5076407;28;20357;-15
2022/09/21 08:37:26;;;;;;;9.05;1.73;;;;;;;;;;5054604;28;20711;-14
2022/09/21 08:39:54;;;;;;;11.07;1.77;;;;;;;;;;5069663;28;20765;-14
2022/09/21 08:42:29;;;;;;;10.07;2.20;;;;;;;;;;5068668;28;20256;-14
2022/09/21 08:44:57;;;;;;;11.38;2.00;;;;;;;;;;5071532;28;20225;-14
2022/09/21 08:47:27;;;;;;;3.30;1.58;;;;;;;;;;5092157;28;20271;-15
2022/09/21 08:49:55;;;;;;;8.68;1.85;;;;;;;;;;5093559;28;20217;-14
2022/09/21 08:52:24;;;;;;;4.65;1.63;;;;;;;;;;5089247;28;20355;-14
2022/09/21 08:54:53;;;;;;;5.32;1.10;;;;;;;;;;5071071;28;20283;-14
2022/09/21 08:57:20;;;;;;;3.78;1.35;;;;;;;;;;5067099;28;20214;-15
2022/09/21 08:59:48;;;;;;;4.28;1.13;;;;;;;;;;5052327;28;20320;-14
2022/09/21 09:02:26;;;;;;;3.35;1.38;;;;;;;;;;5088874;28;20286;-14
2022/09/21 09:04:53;;;;;;;4.72;1.58;;;;;;;;;;5077354;28;20237;-14
2022/09/21 09:07:26;;;;;;;3.13;0.93;;;;;;;;;;5072741;28;20291;-14
2022/09/21 09:09:57;;;;;;;4.68;1.20;;;;;;;;;;5072708;28;20231;-14
2022/09/21 09:12:30;;;;;;;6.20;1.48;;;;;;;;;;5072384;28;20299;-14
2022/09/21 09:15:15;;;;;;;5.82;1.25;;;;;;;;;;5071877;28;20287;-15
2022/09/21 09:17:48;;;;;;;5.88;1.08;;;;;;;;;;5052868;28;20376;-14
2022/09/21 09:20:15;;;;;;;3.65;1.00;;;;;;;;;;5052360;28;20260;-14
2022/09/21 09:22:45;;;;;;;2.03;0.77;;;;;;;;;;5052217;28;21121;-14
2022/09/21 09:25:15;;;;;;;3.33;1.10;;;;;;;;;;5052462;28;21012;-14
2022/09/21 09:27:42;;;;;;;3.05;1.15;;;;;;;;;;5072468;28;20284;-14
2022/09/21 09:30:13;;;;;;;4.03;0.98;;;;;;;;;;5073050;28;20233;-14
2022/09/21 09:32:41;;;;;;;2.95;1.10;;;;;;;;;;5092803;28;20306;-14
2022/09/21 09:35:15;;;;;;;3.47;0.80;;;;;;;;;;5092933;28;20781;-14
2022/09/21 09:37:43;;;;;;;2.50;0.90;;;;;;;;;;5068420;28;20280;-14
2022/09/21 09:40:11;;;;;;;2.72;1.00;;;;;;;;;;5051700;28;21003;-14
2022/09/21 09:42:43;;;;;;;2.65;0.65;;;;;;;;;;5052140;28;20218;-14
2022/09/21 09:45:31;;;;;;;1.55;0.80;;;;;;;;;;5053600;28;20636;-14
2022/09/21 09:48:02;;;;;;;1.42;0.68;;;;;;;;;;5083937;28;21768;-14
2022/09/21 09:50:30;;;;;;;2.28;0.70;;;;;;;;;;5071861;28;20233;-14
2022/09/21 09:52:59;;;;;;;2.67;0.77;;;;;;;;;;5072223;28;20267;-14
2022/09/21 09:55:29;;;;;;;5.10;0.88;;;;;;;;;;5071587;28;20229;-14
2022/09/21 09:57:57;;;;;;;3.60;0.80;;;;;;;;;;5059564;28;20222;-14
2022/09/21 10:00:25;;;;;;;4.47;0.80;;;;;;;;;;5072189;28;20283;-14
2022/09/21 10:02:53;;;;;;;1.77;0.95;;;;;;;;;;5091697;28;20282;-14
2022/09/21 10:05:21;;;;;;;1.20;0.60;;;;;;;;;;5091985;28;20294;-14
2022/09/21 10:07:49;;;;;;;1.65;0.82;;;;;;;;;;5092549;28;20214;-14
2022/09/21 10:10:26;;;;;;;3.58;0.98;;;;;;;;;;5081092;28;20774;-14
2022/09/21 10:12:54;;;;;;;1.70;0.80;;;;;;;;;;5071717;28;20221;-14
2022/09/21 10:15:23;;;;;;;2.80;1.25;;;;;;;;;;5073548;28;20287;-14
2022/09/21 10:17:57;;;;;;;4.13;1.08;;;;;;;;;;5078798;28;20280;-14
2022/09/21 10:20:24;;;;;;;2.00;1.05;;;;;;;;;;5071103;28;20330;-14
2022/09/21 10:22:53;;;;;;;1.63;0.80;;;;;;;;;;5071411;28;21099;-14
2022/09/21 10:25:20;;;;;;;3.70;0.75;;;;;;;;;;5071491;28;20802;-14
2022/09/21 10:27:49;;;;;;;2.85;0.80;;;;;;;;;;5070960;28;20225;-14
2022/09/21 10:30:31;;;;;;;2.38;0.70;;;;;;;;;;5072864;28;20295;-14
2022/09/21 10:33:00;;;;;;;4.72;0.77;;;;;;;;;;5075198;28;20309;-14
2022/09/21 10:35:27;;;;;;;1.27;0.70;;;;;;;;;;5071027;28;20327;-14
2022/09/21 10:38:08;;;;;;;2.35;0.80;;;;;;;;;;5067351;28;20265;-14
2022/09/21 10:40:36;;;;;;;1.23;0.50;;;;;;;;;;5051160;28;20226;-14
2022/09/21 10:43:05;;;;;;;1.73;0.85;;;;;;;;;;5057866;28;20221;-14
2022/09/21 10:45:33;;;;;;;2.05;0.88;;;;;;;;;;5074561;28;20238;-14
2022/09/21 10:48:06;;;;;;;3.35;0.77;;;;;;;;;;5090022;28;20213;-14
2022/09/21 10:50:35;;;;;;;1.25;0.68;;;;;;;;;;5091474;28;20217;-14
2022/09/21 10:53:10;;;;;;;2.55;0.73;;;;;;;;;;5090653;28;21022;-14
2022/09/21 10:55:38;;;;;;;0.80;0.50;;;;;;;;;;5050735;28;20226;-14
2022/09/21 10:58:20;;;;;;;1.67;0.65;;;;;;;;;;5068061;28;20237;-14
2022/09/21 11:00:50;;;;;;;4.03;0.93;;;;;;;;;;5076967;28;20217;-14
2022/09/21 11:03:38;;;;;;;2.83;0.80;;;;;;;;;;5090667;28;20988;-14
2022/09/21 11:06:06;;;;;;;9.85;0.93;;;;;;;;;;5073854;28;20749;-14
2022/09/21 11:08:35;;;;;;;4.13;0.82;;;;;;;;;;5070514;28;20995;-14
2022/09/21 11:11:13;;;;;;;3.10;0.70;;;;;;;;;;5071615;28;20273;-14
2022/09/21 11:13:44;;;;;;;3.90;0.98;;;;;;;;;;5071506;28;20322;-14
2022/09/21 11:16:13;;;;;;;11.15;0.93;;;;;;;;;;5070309;28;20230;-14
2022/09/21 11:18:44;;;;;;;2.40;0.60;;;;;;;;;;5070349;28;20750;-14
2022/09/21 11:21:13;;;;;;;5.40;0.70;;;;;;;;;;5069975;28;20310;-15
2022/09/21 11:23:43;;;;;;;4.07;0.80;;;;;;;;;;5069965;28;20272;-14
2022/09/21 11:26:12;;;;;;;5.07;0.75;;;;;;;;;;5060369;28;20241;-14
2022/09/21 11:28:40;;;;;;;9.57;1.50;;;;;;;;;;5069636;28;20567;-14
2022/09/21 11:31:26;;;;;;;4.38;0.65;;;;;;;;;;5078949;28;20287;-14
2022/09/21 11:34:04;;;;;;;5.80;1.00;;;;;;;;;;5085272;28;20432;-14
2022/09/21 11:36:34;;;;;;;3.88;0.63;;;;;;;;;;5060723;28;20281;-14
2022/09/21 11:39:02;;;;;;;4.15;0.70;;;;;;;;;;5060716;28;20234;-14
2022/09/21 11:41:34;;;;;;;2.78;0.60;;;;;;;;;;5061307;28;20308;-14
2022/09/21 11:44:18;;;;;;;3.70;0.70;;;;;;;;;;5053600;28;20269;-14
2022/09/21 11:46:48;;;;;;;1.95;0.68;;;;;;;;;;5062089;28;20758;-14
2022/09/21 11:49:21;;;;;;;2.05;0.75;;;;;;;;;;5068799;28;20237;-14
2022/09/21 11:51:53;;;;;;;5.43;0.90;;;;;;;;;;5064393;28;21090;-14
2022/09/21 11:54:39;;;;;;;4.20;0.82;;;;;;;;;;5065788;28;20327;-14
2022/09/21 11:57:09;;;;;;;5.85;1.05;;;;;;;;;;5059640;28;20229;-14
2022/09/21 11:59:54;;;;;;;7.22;1.27;;;;;;;;;;5069163;28;20233;-14
2022/09/21 12:02:30;;;;;;;4.85;1.02;;;;;;;;;;5082534;28;20283;-14
2022/09/21 12:04:58;;;;;;;7.00;0.88;;;;;;;;;;5069847;28;20225;-14
2022/09/21 12:07:41;;;;;;;2.58;1.02;;;;;;;;;;5069824;28;20275;-14
2022/09/21 12:10:30;;;;;;;4.80;0.93;;;;;;;;;;5068747;28;20288;-14
2022/09/21 12:12:57;;;;;;;10.50;1.17;;;;;;;;;;5049800;28;21088;-14
2022/09/21 12:15:26;;;;;;;8.95;1.00;;;;;;;;;;5055620;28;20236;-14
2022/09/21 12:17:57;;;;;;;6.03;1.10;;;;;;;;;;5090369;28;20239;-14
2022/09/21 12:20:25;;;;;;;10.23;1.23;;;;;;;;;;5080306;28;20421;-14
2022/09/21 12:22:56;;;;;;;11.48;0.90;;;;;;;;;;5041264;28;20519;-15
2022/09/21 12:25:24;;;;;;;14.20;1.70;;;;;;;;;;5032841;28;20235;-14
2022/09/21 12:27:51;;;;;;;12.90;1.65;;;;;;;;;;5033066;28;20218;-14
2022/09/21 12:30:20;;;;;;;14.73;1.30;;;;;;;;;;5037679;28;20215;-14
2022/09/21 12:32:52;;;;;;;15.23;2.03;;;;;;;;;;5067781;28;20233;-15
2022/09/21 12:35:23;;;;;;;12.43;1.55;;;;;;;;;;5053521;28;20230;-14
2022/09/21 12:37:51;;;;;;;10.48;1.40;;;;;;;;;;5053642;28;20337;-14
2022/09/21 12:40:20;;;;;;;3.60;1.20;;;;;;;;;;5047847;28;20238;-14
2022/09/21 12:42:48;;;;;;;5.88;0.80;;;;;;;;;;5033717;28;20609;-14
2022/09/21 12:45:17;;;;;;;6.00;1.42;;;;;;;;;;5052641;28;20759;-14
2022/09/21 12:47:46;;;;;;;4.57;1.20;;;;;;;;;;5072663;28;20233;-14
2022/09/21 12:50:18;;;;;;;1.77;0.70;;;;;;;;;;5073012;28;20267;-14
2022/09/21 12:52:46;;;;;;;3.30;0.70;;;;;;;;;;5072845;28;20969;-14
2022/09/21 12:55:20;;;;;;;5.90;1.25;;;;;;;;;;5062839;28;20767;-14
2022/09/21 12:57:49;;;;;;;5.10;1.20;;;;;;;;;;5052694;28;20230;-14
2022/09/21 13:00:38;;;;;;;3.22;0.80;;;;;;;;;;5054000;28;20388;-14
2022/09/21 13:03:08;;;;;;;2.60;0.75;;;;;;;;;;5046745;28;20222;-14
2022/09/21 13:05:38;;;;;;;9.18;1.20;;;;;;;;;;5043983;28;20234;-14
2022/09/21 13:08:11;;;;;;;18.35;2.50;;;;;;;;;;5038189;28;20254;-14
2022/09/21 13:10:42;;;;;;;21.65;2.25;;;;;;;;;;5036482;28;20235;-14
2022/09/21 13:13:17;;;;;;;13.82;1.55;;;;;;;;;;5032914;28;20226;-14
2022/09/21 13:15:45;;;;;;;10.68;1.25;;;;;;;;;;5044115;28;20240;-14
2022/09/21 13:18:17;;;;;;;14.70;1.30;;;;;;;;;;5054880;28;20226;-14
2022/09/21 13:20:44;;;;;;;10.40;1.55;;;;;;;;;;5053861;28;20674;-15
2022/09/21 13:23:15;;;;;;;6.18;1.27;;;;;;;;;;5071876;28;21050;-14
2022/09/21 13:25:43;;;;;;;10.20;1.33;;;;;;;;;;5071129;28;20287;-14
2022/09/21 13:28:20;;;;;;;12.38;1.60;;;;;;;;;;5071434;28;20233;-14
2022/09/21 13:30:48;;;;;;;9.48;1.05;;;;;;;;;;5077588;28;20626;-14
2022/09/21 13:33:31;;;;;;;11.55;1.27;;;;;;;;;;5092990;28;20340;-14
2022/09/21 13:36:03;;;;;;;8.38;1.85;;;;;;;;;;5071989;28;20233;-14
2022/09/21 13:38:36;;;;;;;9.80;1.30;;;;;;;;;;5071586;28;20229;-14
2022/09/21 13:41:03;;;;;;;12.15;1.23;;;;;;;;;;5072706;28;20226;-14
2022/09/21 13:43:45;;;;;;;9.90;1.08;;;;;;;;;;5072141;28;20215;-14
2022/09/21 13:46:31;;;;;;;8.70;1.00;;;;;;;;;;5080442;28;20985;-14
2022/09/21 13:48:58;;;;;;;8.88;0.98;;;;;;;;;;5072586;28;20319;-14
2022/09/21 13:51:26;;;;;;;9.65;0.82;;;;;;;;;;5070332;28;20751;-14
2022/09/21 13:53:55;;;;;;;9.50;1.35;;;;;;;;;;5072029;28;20236;-14
2022/09/21 13:56:24;;;;;;;10.25;1.50;;;;;;;;;;5067631;28;20234;-14
2022/09/21 13:58:52;;;;;;;6.43;1.00;;;;;;;;;;5052258;28;20697;-14
2022/09/21 14:01:20;;;;;;;3.25;0.80;;;;;;;;;;5062213;28;20234;-14
2022/09/21 14:04:16;;;;;;;5.70;1.23;;;;;;;;;;5072507;28;20234;-14
2022/09/21 14:06:44;;;;;;;7.10;0.80;;;;;;;;;;5071784;28;20226;-14
2022/09/21 14:09:19;;;;;;;6.53;1.20;;;;;;;;;;5071558;28;20303;-14
2022/09/21 14:11:48;;;;;;;5.70;0.77;;;;;;;;;;5071013;28;20291;-14
2022/09/21 14:14:18;;;;;;;9.18;1.55;;;;;;;;;;5071526;28;20226;-14
2022/09/21 14:16:52;;;;;;;3.80;0.98;;;;;;;;;;5085238;28;20374;-14
2022/09/21 14:19:38;;;;;;;4.93;0.95;;;;;;;;;;5074562;28;20212;-14
2022/09/21 14:22:25;;;;;;;12.60;1.40;;;;;;;;;;5070688;28;20246;-14
2022/09/21 14:25:08;;;;;;;7.07;1.20;;;;;;;;;;5071404;28;20213;-14
2022/09/21 14:27:38;;;;;;;5.35;1.20;;;;;;;;;;5071258;28;20253;-14
2022/09/21 14:30:16;;;;;;;5.35;0.60;;;;;;;;;;5071785;28;20225;-14
2022/09/21 14:32:46;;;;;;;7.30;0.85;;;;;;;;;;5091790;28;20278;-14
2022/09/21 14:35:15;;;;;;;5.95;0.93;;;;;;;;;;5073530;28;21189;-14
2022/09/21 14:37:44;;;;;;;4.82;1.15;;;;;;;;;;5072313;28;20280;-14
2022/09/21 14:40:16;;;;;;;4.03;1.00;;;;;;;;;;5071382;28;20750;-14
2022/09/21 14:42:45;;;;;;;4.38;0.85;;;;;;;;;;5070723;28;20217;-14
2022/09/21 14:45:16;;;;;;;4.22;0.70;;;;;;;;;;5071309;28;20233;-14
2022/09/21 14:47:47;;;;;;;5.43;0.90;;;;;;;;;;5072102;28;20277;-14
2022/09/21 14:50:18;;;;;;;2.53;0.75;;;;;;;;;;5071313;28;20214;-14
2022/09/21 14:52:50;;;;;;;3.85;0.80;;;;;;;;;;5071159;28;20221;-14
2022/09/21 14:55:19;;;;;;;2.08;0.60;;;;;;;;;;5070050;28;20621;-14
2022/09/21 14:58:04;;;;;;;3.53;0.88;;;;;;;;;;5071054;28;20272;-14
2022/09/21 15:00:38;;;;;;;1.88;0.75;;;;;;;;;;5074202;28;20886;-14
2022/09/21 15:03:17;;;;;;;1.95;0.80;;;;;;;;;;5071989;28;20302;-14